createdAt,value
2022-12-27T00:00:26.308Z,0.72
2022-12-27T00:02:52.910Z,0.74
2022-12-27T00:05:19.524Z,0.83
2022-12-27T00:07:46.120Z,0.87
2022-12-27T00:10:12.557Z,0.83
2022-12-27T00:12:39.045Z,0.79
2022-12-27T00:15:05.912Z,0.75
2022-12-27T00:17:32.419Z,0.80
2022-12-27T00:19:58.997Z,0.82
2022-12-27T00:22:25.509Z,0.80
2022-12-27T00:24:52.781Z,0.80
2022-12-27T00:27:20.091Z,0.79
2022-12-27T00:29:46.622Z,0.76
2022-12-27T00:32:15.392Z,0.74
2022-12-27T00:34:41.943Z,0.76
2022-12-27T00:37:08.468Z,0.78
2022-12-27T00:39:34.952Z,0.82
2022-12-27T00:42:01.401Z,0.87
2022-12-27T00:44:27.925Z,0.88
2022-12-27T00:46:54.364Z,0.84
2022-12-27T00:49:20.869Z,0.82
2022-12-27T00:51:47.483Z,0.83
2022-12-27T00:54:14.122Z,0.83
2022-12-27T00:56:40.574Z,0.90
2022-12-27T00:59:07.124Z,0.91
2022-12-27T01:01:34.965Z,0.92
2022-12-27T01:04:02.073Z,0.90
2022-12-27T01:06:29.686Z,0.93
2022-12-27T01:08:56.886Z,0.92
2022-12-27T01:11:24.509Z,0.99
2022-12-27T01:13:51.093Z,1.01
2022-12-27T01:16:19.478Z,1.00
2022-12-27T01:18:46.577Z,1.06
2022-12-27T01:21:14.873Z,1.04
2022-12-27T01:23:43.455Z,0.97
2022-12-27T01:26:14.441Z,0.84
2022-12-27T01:28:40.926Z,0.84
2022-12-27T01:31:08.301Z,0.92
2022-12-27T01:33:34.877Z,1.00
2022-12-27T01:36:30.713Z,0.84
2022-12-27T01:38:57.761Z,0.66
2022-12-27T01:41:44.577Z,0.74
2022-12-27T01:44:29.573Z,0.89
2022-12-27T01:46:56.160Z,0.80
2022-12-27T01:49:22.664Z,0.71
2022-12-27T01:51:49.235Z,0.66
2022-12-27T01:54:15.816Z,0.62
2022-12-27T01:56:43.323Z,0.57
2022-12-27T01:59:10.749Z,0.58
2022-12-27T02:01:43.208Z,0.58
2022-12-27T02:04:11.905Z,0.57
2022-12-27T02:06:39.264Z,0.73
2022-12-27T02:09:11.544Z,0.81
2022-12-27T02:11:51.146Z,0.67
2022-12-27T02:14:31.840Z,0.63
2022-12-27T02:16:59.578Z,0.60
2022-12-27T02:19:41.181Z,0.70
2022-12-27T02:22:28.037Z,0.73
2022-12-27T02:25:00.996Z,0.66
2022-12-27T02:27:39.615Z,0.62
2022-12-27T02:30:06.706Z,0.61
2022-12-27T02:32:44.318Z,0.73
2022-12-27T02:35:13.616Z,0.76
2022-12-27T02:37:44.369Z,0.69
2022-12-27T02:40:30.304Z,0.66
2022-12-27T02:43:15.609Z,0.65
2022-12-27T02:46:29.944Z,0.75
2022-12-27T02:49:16.063Z,0.78
2022-12-27T02:52:04.172Z,0.71
2022-12-27T02:54:49.608Z,0.69
2022-12-27T02:57:36.061Z,0.69
2022-12-27T03:00:23.108Z,0.90
2022-12-27T03:03:07.824Z,0.75
2022-12-27T03:06:12.670Z,0.70
2022-12-27T03:08:49.197Z,0.69
2022-12-27T03:11:34.427Z,0.83
2022-12-27T03:14:36.190Z,0.84
2022-12-27T03:17:05.841Z,0.78
2022-12-27T03:19:59.283Z,0.75
2022-12-27T03:22:46.448Z,0.79
2022-12-27T03:25:29.420Z,0.96
2022-12-27T03:28:18.778Z,0.84
2022-12-27T03:31:05.498Z,0.81
2022-12-27T03:33:32.804Z,0.82
2022-12-27T03:36:19.472Z,0.88
2022-12-27T03:39:06.210Z,0.97
2022-12-27T03:42:11.571Z,0.91
2022-12-27T03:44:38.347Z,0.83
2022-12-27T03:47:25.099Z,0.87
2022-12-27T03:50:11.782Z,0.96
2022-12-27T03:52:43.300Z,0.99
2022-12-27T03:55:10.855Z,0.93
2022-12-27T03:57:39.831Z,0.90
2022-12-27T04:00:06.685Z,0.89
2022-12-27T04:02:33.409Z,0.81
2022-12-27T04:05:00.088Z,0.90
2022-12-27T04:07:26.595Z,0.94
2022-12-27T04:10:13.595Z,0.87
2022-12-27T04:12:58.988Z,0.82
2022-12-27T04:15:44.288Z,0.81
2022-12-27T04:18:29.636Z,0.73
2022-12-27T04:21:14.763Z,0.77
2022-12-27T04:24:01.990Z,0.82
2022-12-27T04:26:47.785Z,0.75
2022-12-27T04:29:32.985Z,0.65
2022-12-27T04:32:18.257Z,0.62
2022-12-27T04:34:44.793Z,0.56
2022-12-27T04:37:13.357Z,0.52
2022-12-27T04:39:39.882Z,0.51
2022-12-27T04:42:24.710Z,0.51
2022-12-27T04:45:14.869Z,0.53
2022-12-27T04:48:02.305Z,0.62
2022-12-27T04:50:49.035Z,0.66
2022-12-27T04:53:37.532Z,0.68
2022-12-27T04:56:04.654Z,0.71
2022-12-27T04:58:33.744Z,0.69
2022-12-27T05:01:20.496Z,0.66
2022-12-27T05:03:48.923Z,0.61
2022-12-27T05:06:15.577Z,0.59
2022-12-27T05:09:00.926Z,0.26
2022-12-27T05:11:45.762Z,0.06
2022-12-27T05:14:14.285Z,0.08
2022-12-27T05:16:41.779Z,0.27
2022-12-27T05:19:09.602Z,0.18
2022-12-27T05:21:37.002Z,0.05
2022-12-27T05:24:23.641Z,0.11
2022-12-27T05:26:50.389Z,0.28
2022-12-27T05:29:17.116Z,0.33
2022-12-27T05:31:43.755Z,0.21
2022-12-27T05:34:12.497Z,0.16
2022-12-27T05:36:39.025Z,0.13
2022-12-27T05:39:05.521Z,0.10
2022-12-27T05:41:31.965Z,0.06
2022-12-27T05:44:03.287Z,0.00
2022-12-27T05:46:33.282Z,0.14
2022-12-27T05:48:59.865Z,0.21
2022-12-27T05:51:26.456Z,0.03
2022-12-27T05:53:53.011Z,-0.06
2022-12-27T05:56:21.070Z,-0.15
2022-12-27T05:58:48.104Z,-0.04
2022-12-27T06:01:16.196Z,0.01
2022-12-27T06:03:42.941Z,-0.10
2022-12-27T06:06:09.953Z,-0.21
2022-12-27T06:08:36.981Z,-0.26
2022-12-27T06:11:03.816Z,-0.12
2022-12-27T06:13:30.443Z,-0.12
2022-12-27T06:16:00.267Z,-0.22
2022-12-27T06:18:34.317Z,-0.24
2022-12-27T06:21:26.660Z,-0.31
2022-12-27T06:23:53.126Z,-0.15
2022-12-27T06:26:24.040Z,-0.19
2022-12-27T06:28:51.398Z,-0.36
2022-12-27T06:31:18.842Z,-0.42
2022-12-27T06:33:46.221Z,-0.44
2022-12-27T06:36:14.092Z,-0.35
2022-12-27T06:38:40.921Z,-0.17
2022-12-27T06:41:10.361Z,-0.27
2022-12-27T06:43:36.882Z,-0.30
2022-12-27T06:46:04.662Z,-0.30
2022-12-27T06:48:33.771Z,-0.26
2022-12-27T06:51:03.533Z,-0.11
2022-12-27T06:53:30.164Z,-0.24
2022-12-27T06:55:56.678Z,-0.27
2022-12-27T06:58:23.208Z,-0.31
2022-12-27T07:00:49.884Z,-0.33
2022-12-27T07:03:16.484Z,-0.20
2022-12-27T07:05:43.883Z,-0.13
2022-12-27T07:08:10.477Z,-0.26
2022-12-27T07:10:37.583Z,-0.31
2022-12-27T07:13:04.100Z,-0.30
2022-12-27T07:15:30.748Z,-0.26
2022-12-27T07:17:57.268Z,-0.11
2022-12-27T07:20:23.704Z,-0.16
2022-12-27T07:22:50.308Z,-0.16
2022-12-27T07:25:16.845Z,-0.16
2022-12-27T07:27:45.237Z,-0.13
2022-12-27T07:30:11.831Z,0.05
2022-12-27T07:32:38.291Z,0.02
2022-12-27T07:35:05.045Z,-0.05
2022-12-27T07:37:31.492Z,-0.06
2022-12-27T07:39:58.857Z,-0.09
2022-12-27T07:42:25.382Z,-0.05
2022-12-27T07:44:51.969Z,0.12
2022-12-27T07:47:18.491Z,0.08
2022-12-27T07:49:45.058Z,-0.01
2022-12-27T07:52:11.564Z,-0.06
2022-12-27T07:54:38.097Z,0.07
2022-12-27T07:57:04.753Z,0.25
2022-12-27T07:59:31.231Z,0.11
2022-12-27T08:02:06.879Z,0.02
2022-12-27T08:04:35.618Z,0.02
2022-12-27T08:07:07.759Z,0.14
2022-12-27T08:09:36.600Z,0.25
2022-12-27T08:12:03.179Z,0.16
2022-12-27T08:14:29.684Z,0.10
2022-12-27T08:17:03.902Z,0.07
2022-12-27T08:19:30.547Z,0.23
2022-12-27T08:21:57.175Z,0.23
2022-12-27T08:24:24.617Z,0.16
2022-12-27T08:26:51.149Z,0.09
2022-12-27T08:29:17.591Z,0.18
2022-12-27T08:31:44.147Z,0.32
2022-12-27T08:34:10.690Z,0.23
2022-12-27T08:36:54.840Z,0.08
2022-12-27T08:39:22.013Z,0.00
2022-12-27T08:41:48.582Z,0.11
2022-12-27T08:44:15.114Z,0.13
2022-12-27T08:46:41.703Z,0.07
2022-12-27T08:49:08.253Z,0.06
2022-12-27T08:51:40.774Z,0.07
2022-12-27T08:54:08.186Z,0.20
2022-12-27T08:56:34.745Z,0.16
2022-12-27T08:59:01.353Z,0.09
2022-12-27T09:01:28.047Z,0.07
2022-12-27T09:03:54.846Z,0.14
2022-12-27T09:06:23.266Z,0.25
2022-12-27T09:08:50.700Z,0.13
2022-12-27T09:11:19.244Z,0.06
2022-12-27T09:13:45.884Z,0.04
2022-12-27T09:16:14.599Z,0.18
2022-12-27T09:18:42.051Z,0.35
2022-12-27T09:21:12.192Z,0.26
2022-12-27T09:23:40.783Z,0.17
2022-12-27T09:26:08.881Z,0.11
2022-12-27T09:28:38.052Z,0.11
2022-12-27T09:31:04.793Z,0.29
2022-12-27T09:33:32.048Z,0.43
2022-12-27T09:36:09.786Z,0.31
2022-12-27T09:38:37.107Z,0.26
2022-12-27T09:41:19.281Z,0.24
2022-12-27T09:43:50.895Z,0.31
2022-12-27T09:46:21.102Z,0.44
2022-12-27T09:48:49.064Z,0.22
2022-12-27T09:51:21.656Z,0.15
2022-12-27T09:53:48.204Z,0.08
2022-12-27T09:56:23.220Z,0.16
2022-12-27T09:58:52.897Z,0.29
2022-12-27T10:01:23.585Z,0.16
2022-12-27T10:03:51.388Z,0.14
2022-12-27T10:06:29.533Z,0.16
2022-12-27T10:09:18.546Z,0.24
2022-12-27T10:11:53.970Z,0.39
2022-12-27T10:14:20.642Z,0.39
2022-12-27T10:17:05.737Z,0.36
2022-12-27T10:19:38.392Z,0.34
2022-12-27T10:22:23.666Z,0.36
2022-12-27T10:24:59.385Z,0.39
2022-12-27T10:27:27.936Z,0.49
2022-12-27T10:29:55.711Z,0.52
2022-12-27T10:32:22.558Z,0.47
2022-12-27T10:34:53.614Z,0.40
2022-12-27T10:37:20.105Z,0.38
2022-12-27T10:39:46.593Z,0.32
2022-12-27T10:42:15.922Z,0.40
2022-12-27T10:44:42.627Z,0.42
2022-12-27T10:47:09.263Z,0.36
2022-12-27T10:49:37.304Z,0.39
2022-12-27T10:52:09.102Z,0.28
2022-12-27T10:54:37.470Z,0.28
2022-12-27T10:57:17.979Z,0.26
2022-12-27T10:59:44.490Z,0.32
2022-12-27T11:02:18.422Z,0.31
2022-12-27T11:04:56.149Z,0.22
2022-12-27T11:07:25.312Z,0.22
2022-12-27T11:10:04.219Z,0.22
2022-12-27T11:12:32.979Z,0.26
2022-12-27T11:15:00.955Z,0.32
2022-12-27T11:17:30.275Z,0.28
2022-12-27T11:19:58.389Z,0.28
2022-12-27T11:22:25.807Z,0.26
2022-12-27T11:24:54.631Z,0.27
2022-12-27T11:27:23.354Z,0.25
2022-12-27T11:29:51.602Z,0.27
2022-12-27T11:32:22.124Z,0.30
2022-12-27T11:34:49.745Z,0.30
2022-12-27T11:37:19.500Z,0.29
2022-12-27T11:39:55.053Z,0.26
2022-12-27T11:42:38.451Z,0.25
2022-12-27T11:45:23.571Z,0.23
2022-12-27T11:47:59.288Z,0.21
2022-12-27T11:50:31.792Z,0.21
2022-12-27T11:52:59.994Z,0.21
2022-12-27T11:55:46.723Z,0.22
2022-12-27T11:58:13.136Z,0.19
2022-12-27T12:00:45.792Z,0.18
2022-12-27T12:03:31.271Z,0.17
2022-12-27T12:06:34.157Z,0.15
2022-12-27T12:09:12.835Z,0.12
2022-12-27T12:11:59.645Z,0.09
2022-12-27T12:14:44.847Z,0.08
2022-12-27T12:17:29.856Z,0.07
2022-12-27T12:20:08.011Z,0.11
2022-12-27T12:22:43.220Z,0.06
2022-12-27T12:25:20.073Z,-0.27
2022-12-27T12:27:56.152Z,-0.40
2022-12-27T12:30:34.608Z,-0.30
2022-12-27T12:33:19.908Z,-0.14
2022-12-27T12:35:46.536Z,-0.18
2022-12-27T12:38:20.120Z,-0.30
2022-12-27T12:40:52.664Z,-0.34
2022-12-27T12:43:19.082Z,-0.43
2022-12-27T12:45:48.633Z,-0.45
2022-12-27T12:48:24.418Z,-0.44
2022-12-27T12:50:52.879Z,-0.41
2022-12-27T12:53:22.105Z,-0.26
2022-12-27T12:56:00.600Z,-0.17
2022-12-27T12:58:36.163Z,-0.26
2022-12-27T13:01:14.270Z,-0.33
2022-12-27T13:03:50.908Z,-0.43
2022-12-27T13:06:36.883Z,-0.46
2022-12-27T13:09:12.362Z,-0.45
2022-12-27T13:11:38.827Z,-0.27
2022-12-27T13:14:05.602Z,-0.26
2022-12-27T13:16:32.149Z,-0.40
2022-12-27T13:19:13.924Z,-0.44
2022-12-27T13:21:52.632Z,-0.46
2022-12-27T13:24:31.356Z,-0.53
2022-12-27T13:27:06.052Z,-0.31
2022-12-27T13:29:46.102Z,-0.36
2022-12-27T13:32:22.460Z,-0.44
2022-12-27T13:35:01.044Z,-0.50
2022-12-27T13:37:27.480Z,-0.51
2022-12-27T13:40:16.029Z,-0.39
2022-12-27T13:43:01.362Z,-0.32
2022-12-27T13:45:47.217Z,-0.39
2022-12-27T13:48:20.174Z,-0.44
2022-12-27T13:50:55.671Z,-0.48
2022-12-27T13:53:34.476Z,-0.44
2022-12-27T13:56:51.470Z,-0.29
2022-12-27T13:59:11.457Z,-0.36
2022-12-27T14:01:48.753Z,-0.50
2022-12-27T14:04:42.679Z,-0.55
2022-12-27T14:07:29.984Z,-0.59
2022-12-27T14:10:04.003Z,-0.38
2022-12-27T14:12:50.706Z,-0.60
2022-12-27T14:15:19.130Z,-0.67
2022-12-27T14:17:45.547Z,-0.71
2022-12-27T14:20:30.278Z,-0.79
2022-12-27T14:23:15.242Z,-0.86
2022-12-27T14:26:00.418Z,-0.64
2022-12-27T14:28:41.775Z,-0.89
2022-12-27T14:31:20.447Z,-0.99
2022-12-27T14:34:05.486Z,-1.08
2022-12-27T14:36:44.253Z,-1.01
2022-12-27T14:39:20.401Z,-0.79
2022-12-27T14:42:05.674Z,-0.97
2022-12-27T14:44:37.985Z,-1.14
2022-12-27T14:47:25.633Z,-1.18
2022-12-27T14:50:10.754Z,-1.21
2022-12-27T14:52:46.376Z,-1.19
2022-12-27T14:55:26.304Z,-1.04
2022-12-27T14:57:57.975Z,-1.08
2022-12-27T15:00:25.882Z,-1.07
2022-12-27T15:02:52.901Z,-1.08
2022-12-27T15:05:23.272Z,-1.00
2022-12-27T15:07:49.775Z,-0.93
2022-12-27T15:10:31.766Z,-0.86
2022-12-27T15:13:00.027Z,-0.94
2022-12-27T15:15:26.532Z,-1.00
2022-12-27T15:18:12.052Z,-1.03
2022-12-27T15:20:41.410Z,-1.05
2022-12-27T15:23:14.040Z,-0.89
2022-12-27T15:25:54.975Z,-0.94
2022-12-27T15:28:50.765Z,-0.98
2022-12-27T15:31:36.139Z,-0.99
2022-12-27T15:34:07.565Z,-1.01
2022-12-27T15:36:43.619Z,-1.01
2022-12-27T15:39:30.985Z,-0.87
2022-12-27T15:42:17.830Z,-0.91
2022-12-27T15:44:56.418Z,-0.99
2022-12-27T15:47:40.753Z,-1.03
2022-12-27T15:50:16.558Z,-1.03
2022-12-27T15:52:53.304Z,-0.88
2022-12-27T15:55:23.055Z,-1.03
2022-12-27T15:57:52.366Z,-1.09
2022-12-27T16:00:31.096Z,-1.12
2022-12-27T16:03:05.458Z,-1.15
2022-12-27T16:05:49.014Z,-1.03
2022-12-27T16:08:25.468Z,-1.13
2022-12-27T16:10:53.909Z,-1.26
2022-12-27T16:13:23.297Z,-1.26
2022-12-27T16:15:52.264Z,-1.29
2022-12-27T16:18:19.011Z,-1.39
2022-12-27T16:20:55.907Z,-1.21
2022-12-27T16:23:26.779Z,-1.20
2022-12-27T16:26:05.274Z,-1.32
2022-12-27T16:28:33.877Z,-1.42
2022-12-27T16:31:01.729Z,-1.48
2022-12-27T16:33:33.576Z,-1.47
2022-12-27T16:36:15.283Z,-1.39
2022-12-27T16:38:52.409Z,-1.32
2022-12-27T16:41:19.009Z,-1.51
2022-12-27T16:43:52.437Z,-1.58
2022-12-27T16:46:31.399Z,-1.67
2022-12-27T16:48:57.927Z,-1.79
2022-12-27T16:51:33.143Z,-1.68
2022-12-27T16:54:04.734Z,-1.59
2022-12-27T16:56:39.054Z,-1.77
2022-12-27T16:59:25.520Z,-1.77
2022-12-27T17:01:52.843Z,-1.81
2022-12-27T17:04:38.552Z,-1.82
2022-12-27T17:07:05.164Z,-1.80
2022-12-27T17:09:39.408Z,-1.69
2022-12-27T17:12:10.728Z,-1.71
2022-12-27T17:14:38.419Z,-1.79
2022-12-27T17:17:10.592Z,-1.85
2022-12-27T17:19:44.862Z,-1.85
2022-12-27T17:22:13.880Z,-1.89
2022-12-27T17:24:42.613Z,-1.93
2022-12-27T17:27:17.740Z,-1.85
2022-12-27T17:30:02.924Z,-1.73
2022-12-27T17:32:50.377Z,-1.91
2022-12-27T17:35:28.556Z,-1.93
2022-12-27T17:38:13.714Z,-1.95
2022-12-27T17:40:51.484Z,-1.96
2022-12-27T17:43:42.715Z,-1.97
2022-12-27T17:46:15.587Z,-1.82
2022-12-27T17:48:42.501Z,-1.94
2022-12-27T17:51:14.169Z,-2.04
2022-12-27T17:54:09.488Z,-2.11
2022-12-27T17:57:05.301Z,-2.11
2022-12-27T17:59:32.965Z,-2.04
2022-12-27T18:02:04.255Z,-1.97
2022-12-27T18:04:36.000Z,-2.04
2022-12-27T18:07:03.912Z,-2.10
2022-12-27T18:09:35.620Z,-2.13
2022-12-27T18:12:03.513Z,-2.13
2022-12-27T18:14:33.830Z,-2.15
2022-12-27T18:17:00.704Z,-2.05
2022-12-27T18:19:31.196Z,-2.11
2022-12-27T18:22:01.920Z,-2.19
2022-12-27T18:24:30.753Z,-2.21
2022-12-27T18:27:07.316Z,-2.22
2022-12-27T18:29:34.429Z,-2.24
2022-12-27T18:32:03.743Z,-2.16
2022-12-27T18:34:36.366Z,-2.05
2022-12-27T18:37:06.989Z,-2.12
2022-12-27T18:39:36.552Z,-2.14
2022-12-27T18:42:07.688Z,-2.15
2022-12-27T18:44:40.317Z,-2.15
2022-12-27T18:47:06.921Z,-2.15
2022-12-27T18:49:34.984Z,-2.17
2022-12-27T18:52:02.496Z,-2.08
2022-12-27T18:54:29.031Z,-2.12
2022-12-27T18:56:56.779Z,-2.22
2022-12-27T18:59:26.403Z,-2.31
2022-12-27T19:01:54.315Z,-2.31
2022-12-27T19:04:24.466Z,-2.30
2022-12-27T19:06:58.056Z,-2.25
2022-12-27T19:09:31.051Z,-2.24
2022-12-27T19:12:20.527Z,-2.16
2022-12-27T19:14:47.474Z,-2.31
2022-12-27T19:17:18.594Z,-2.33
2022-12-27T19:19:48.537Z,-2.34
2022-12-27T19:22:33.425Z,-2.37
2022-12-27T19:25:00.633Z,-2.38
2022-12-27T19:27:27.158Z,-2.34
2022-12-27T19:29:53.713Z,-2.26
2022-12-27T19:32:28.869Z,-2.28
2022-12-27T19:34:57.655Z,-2.34
2022-12-27T19:37:28.030Z,-2.39
2022-12-27T19:39:54.877Z,-2.44
2022-12-27T19:42:27.062Z,-2.52
2022-12-27T19:44:53.539Z,-2.57
2022-12-27T19:47:20.084Z,-2.50
2022-12-27T19:49:46.602Z,-2.42
2022-12-27T19:52:18.165Z,-2.49
2022-12-27T19:54:45.027Z,-2.55
2022-12-27T19:57:14.938Z,-2.53
2022-12-27T19:59:41.727Z,-2.60
2022-12-27T20:02:08.703Z,-2.65
2022-12-27T20:04:36.292Z,-2.73
2022-12-27T20:07:03.151Z,-2.74
2022-12-27T20:09:29.777Z,-2.75
2022-12-27T20:11:56.373Z,-2.66
2022-12-27T20:14:22.877Z,-2.72
2022-12-27T20:16:49.967Z,-2.76
2022-12-27T20:19:18.098Z,-2.81
2022-12-27T20:21:44.766Z,-2.84
2022-12-27T20:24:12.384Z,-2.83
2022-12-27T20:26:39.193Z,-2.82
2022-12-27T20:29:05.780Z,-2.87
2022-12-27T20:31:42.204Z,-2.81
2022-12-27T20:34:11.171Z,-2.78
2022-12-27T20:36:39.900Z,-2.82
2022-12-27T20:39:07.678Z,-2.87
2022-12-27T20:41:34.379Z,-2.90
2022-12-27T20:44:01.060Z,-2.93
2022-12-27T20:46:28.002Z,-2.92
2022-12-27T20:48:54.922Z,-2.91
2022-12-27T20:51:22.887Z,-2.91
2022-12-27T20:53:53.512Z,-2.98
2022-12-27T20:56:20.015Z,-3.06
2022-12-27T20:58:46.529Z,-2.99
2022-12-27T21:01:17.676Z,-2.92
2022-12-27T21:03:45.136Z,-2.92
2022-12-27T21:06:13.936Z,-2.97
2022-12-27T21:08:46.489Z,-3.01
2022-12-27T21:11:16.216Z,-3.06
2022-12-27T21:13:46.172Z,-3.11
2022-12-27T21:16:14.201Z,-3.10
2022-12-27T21:18:41.874Z,-3.14
2022-12-27T21:21:11.337Z,-3.10
2022-12-27T21:23:37.961Z,-3.08
2022-12-27T21:26:08.971Z,-3.14
2022-12-27T21:28:36.255Z,-3.10
2022-12-27T21:31:03.082Z,-3.10
2022-12-27T21:33:29.844Z,-3.07
2022-12-27T21:35:56.394Z,-3.09
2022-12-27T21:38:25.161Z,-3.11
2022-12-27T21:40:57.549Z,-3.18
2022-12-27T21:43:24.091Z,-3.19
2022-12-27T21:45:53.220Z,-3.19
2022-12-27T21:48:19.879Z,-3.23
2022-12-27T21:50:46.792Z,-3.25
2022-12-27T21:53:19.649Z,-3.26
2022-12-27T21:55:46.188Z,-3.34
2022-12-27T21:58:12.817Z,-3.29
2022-12-27T22:00:39.893Z,-3.36
2022-12-27T22:03:06.831Z,-3.31
2022-12-27T22:05:34.163Z,-3.34
2022-12-27T22:08:00.751Z,-3.34
2022-12-27T22:10:27.327Z,-3.28
2022-12-27T22:12:56.119Z,-3.31
2022-12-27T22:15:22.730Z,-3.42
2022-12-27T22:17:49.683Z,-3.47
2022-12-27T22:20:16.338Z,-3.47
2022-12-27T22:22:42.883Z,-3.45
2022-12-27T22:25:09.670Z,-3.54
2022-12-27T22:27:36.252Z,-3.59
2022-12-27T22:30:02.957Z,-3.62
2022-12-27T22:32:29.432Z,-3.60
2022-12-27T22:34:55.892Z,-3.64
2022-12-27T22:37:22.342Z,-3.58
2022-12-27T22:39:50.925Z,-3.56
2022-12-27T22:42:19.450Z,-3.50
2022-12-27T22:44:45.949Z,-3.40
2022-12-27T22:47:28.497Z,-3.36
2022-12-27T22:49:55.181Z,-3.40
2022-12-27T22:52:21.772Z,-3.54
2022-12-27T22:55:04.259Z,-3.58
2022-12-27T22:57:35.322Z,-3.55
2022-12-27T23:00:01.960Z,-3.52
2022-12-27T23:02:28.591Z,-3.43
2022-12-27T23:04:56.010Z,-3.44
2022-12-27T23:08:04.755Z,-3.65
2022-12-27T23:10:09.643Z,-4.15
2022-12-27T23:12:36.237Z,-4.23
2022-12-27T23:15:02.684Z,-4.25
2022-12-27T23:17:29.547Z,-4.26
2022-12-27T23:19:55.980Z,-4.30
2022-12-27T23:22:22.593Z,-4.29
2022-12-27T23:24:49.185Z,-4.32
2022-12-27T23:27:15.637Z,-4.28
2022-12-27T23:29:42.122Z,-4.29
2022-12-27T23:32:08.571Z,-4.21
2022-12-27T23:34:35.110Z,-4.20
2022-12-27T23:37:01.648Z,-4.20
2022-12-27T23:39:28.367Z,-4.21
2022-12-27T23:41:55.130Z,-4.22
2022-12-27T23:44:33.892Z,-4.18
2022-12-27T23:47:01.916Z,-4.17
2022-12-27T23:49:28.396Z,-4.36
2022-12-27T23:51:54.860Z,-4.39
2022-12-27T23:54:21.361Z,-4.49
2022-12-27T23:56:47.870Z,-4.59
2022-12-27T23:59:14.493Z,-4.54
